sensor_id;sensor_type;location;lat;lon;timestamp;P1;durP1;ratioP1;P2;durP2;ratioP2
77563;SDS011;66703;48.076;9.220;2023-08-01T00:01:05;5.25;;;3.97;;
77563;SDS011;66703;48.076;9.220;2023-08-01T00:07:24;5.55;;;4.07;;
77563;SDS011;66703;48.076;9.220;2023-08-01T00:10:15;4.60;;;3.78;;
77563;SDS011;66703;48.076;9.220;2023-08-01T00:12:46;6.20;;;3.83;;
77563;SDS011;66703;48.076;9.220;2023-08-01T00:15:52;7.80;;;4.22;;
77563;SDS011;66703;48.076;9.220;2023-08-01T00:18:36;7.13;;;3.30;;
77563;SDS011;66703;48.076;9.220;2023-08-01T00:21:06;14.55;;;3.80;;
77563;SDS011;66703;48.076;9.220;2023-08-01T00:23:45;5.85;;;3.38;;
77563;SDS011;66703;48.076;9.220;2023-08-01T00:26:20;6.30;;;3.65;;
77563;SDS011;66703;48.076;9.220;2023-08-01T00:28:49;6.45;;;3.47;;
77563;SDS011;66703;48.076;9.220;2023-08-01T00:31:26;6.82;;;3.78;;
77563;SDS011;66703;48.076;9.220;2023-08-01T00:33:54;8.32;;;4.25;;
77563;SDS011;66703;48.076;9.220;2023-08-01T00:36:29;11.02;;;5.18;;
77563;SDS011;66703;48.076;9.220;2023-08-01T00:38:58;4.95;;;3.45;;
77563;SDS011;66703;48.076;9.220;2023-08-01T00:41:26;6.85;;;5.05;;
77563;SDS011;66703;48.076;9.220;2023-08-01T00:43:52;5.45;;;3.95;;
77563;SDS011;66703;48.076;9.220;2023-08-01T00:46:23;5.88;;;4.25;;
77563;SDS011;66703;48.076;9.220;2023-08-01T00:48:52;5.13;;;4.03;;
77563;SDS011;66703;48.076;9.220;2023-08-01T00:51:18;7.53;;;4.53;;
77563;SDS011;66703;48.076;9.220;2023-08-01T00:53:56;5.72;;;4.00;;
77563;SDS011;66703;48.076;9.220;2023-08-01T00:56:40;5.53;;;3.85;;
77563;SDS011;66703;48.076;9.220;2023-08-01T00:59:10;8.43;;;3.75;;
77563;SDS011;66703;48.076;9.220;2023-08-01T01:01:41;5.22;;;3.95;;
77563;SDS011;66703;48.076;9.220;2023-08-01T01:05:13;11.18;;;4.40;;
77563;SDS011;66703;48.076;9.220;2023-08-01T01:07:41;5.38;;;4.20;;
77563;SDS011;66703;48.076;9.220;2023-08-01T01:10:32;5.25;;;3.97;;
77563;SDS011;66703;48.076;9.220;2023-08-01T01:13:00;8.23;;;4.32;;
77563;SDS011;66703;48.076;9.220;2023-08-01T01:15:29;5.25;;;4.07;;
77563;SDS011;66703;48.076;9.220;2023-08-01T01:17:58;6.13;;;4.55;;
77563;SDS011;66703;48.076;9.220;2023-08-01T01:20:29;6.45;;;4.93;;
77563;SDS011;66703;48.076;9.220;2023-08-01T01:23:01;6.15;;;4.95;;
77563;SDS011;66703;48.076;9.220;2023-08-01T01:25:30;6.72;;;4.45;;
77563;SDS011;66703;48.076;9.220;2023-08-01T01:27:56;6.13;;;4.40;;
77563;SDS011;66703;48.076;9.220;2023-08-01T01:30:24;8.32;;;4.43;;
77563;SDS011;66703;48.076;9.220;2023-08-01T01:32:55;5.30;;;3.97;;
77563;SDS011;66703;48.076;9.220;2023-08-01T01:35:27;6.30;;;4.22;;
77563;SDS011;66703;48.076;9.220;2023-08-01T01:37:58;7.75;;;4.65;;
77563;SDS011;66703;48.076;9.220;2023-08-01T01:43:05;7.43;;;4.40;;
77563;SDS011;66703;48.076;9.220;2023-08-01T01:45:33;8.55;;;4.80;;
77563;SDS011;66703;48.076;9.220;2023-08-01T01:48:02;7.40;;;5.20;;
77563;SDS011;66703;48.076;9.220;2023-08-01T01:50:28;5.60;;;4.40;;
77563;SDS011;66703;48.076;9.220;2023-08-01T01:53:17;6.85;;;4.55;;
77563;SDS011;66703;48.076;9.220;2023-08-01T01:55:45;7.72;;;5.15;;
77563;SDS011;66703;48.076;9.220;2023-08-01T01:58:19;5.32;;;4.35;;
77563;SDS011;66703;48.076;9.220;2023-08-01T02:04:05;7.13;;;4.75;;
77563;SDS011;66703;48.076;9.220;2023-08-01T02:06:43;6.20;;;4.30;;
77563;SDS011;66703;48.076;9.220;2023-08-01T02:09:30;7.03;;;4.97;;
77563;SDS011;66703;48.076;9.220;2023-08-01T02:12:21;6.18;;;3.95;;
77563;SDS011;66703;48.076;9.220;2023-08-01T02:15:09;6.05;;;4.63;;
77563;SDS011;66703;48.076;9.220;2023-08-01T02:17:45;9.63;;;5.22;;
77563;SDS011;66703;48.076;9.220;2023-08-01T02:20:20;7.78;;;4.85;;
77563;SDS011;66703;48.076;9.220;2023-08-01T02:22:57;7.55;;;6.15;;
77563;SDS011;66703;48.076;9.220;2023-08-01T02:25:37;6.47;;;4.60;;
77563;SDS011;66703;48.076;9.220;2023-08-01T02:28:07;9.25;;;5.60;;
77563;SDS011;66703;48.076;9.220;2023-08-01T02:30:46;10.07;;;5.75;;
77563;SDS011;66703;48.076;9.220;2023-08-01T02:33:15;7.55;;;5.30;;
77563;SDS011;66703;48.076;9.220;2023-08-01T02:35:43;6.88;;;4.93;;
77563;SDS011;66703;48.076;9.220;2023-08-01T02:38:18;5.55;;;4.68;;
77563;SDS011;66703;48.076;9.220;2023-08-01T02:40:44;5.22;;;4.53;;
77563;SDS011;66703;48.076;9.220;2023-08-01T02:43:15;5.03;;;4.53;;
77563;SDS011;66703;48.076;9.220;2023-08-01T02:45:44;7.68;;;5.05;;
77563;SDS011;66703;48.076;9.220;2023-08-01T02:48:10;6.45;;;4.68;;
77563;SDS011;66703;48.076;9.220;2023-08-01T02:50:41;6.95;;;4.18;;
77563;SDS011;66703;48.076;9.220;2023-08-01T02:53:10;6.40;;;4.72;;
77563;SDS011;66703;48.076;9.220;2023-08-01T02:55:38;5.45;;;4.25;;
77563;SDS011;66703;48.076;9.220;2023-08-01T02:58:04;6.97;;;4.82;;
77563;SDS011;66703;48.076;9.220;2023-08-01T03:00:30;5.32;;;3.92;;
77563;SDS011;66703;48.076;9.220;2023-08-01T03:03:02;6.72;;;4.07;;
77563;SDS011;66703;48.076;9.220;2023-08-01T03:05:31;4.72;;;3.90;;
77563;SDS011;66703;48.076;9.220;2023-08-01T03:07:57;6.68;;;4.75;;
77563;SDS011;66703;48.076;9.220;2023-08-01T03:10:26;11.02;;;4.95;;
77563;SDS011;66703;48.076;9.220;2023-08-01T03:12:52;6.47;;;4.68;;
77563;SDS011;66703;48.076;9.220;2023-08-01T03:15:23;10.63;;;4.03;;
77563;SDS011;66703;48.076;9.220;2023-08-01T03:17:49;7.13;;;4.20;;
77563;SDS011;66703;48.076;9.220;2023-08-01T03:20:15;6.82;;;4.25;;
77563;SDS011;66703;48.076;9.220;2023-08-01T03:22:41;7.63;;;4.40;;
77563;SDS011;66703;48.076;9.220;2023-08-01T03:25:11;8.02;;;4.85;;
77563;SDS011;66703;48.076;9.220;2023-08-01T03:27:37;7.63;;;4.40;;
77563;SDS011;66703;48.076;9.220;2023-08-01T03:30:08;6.80;;;5.43;;
77563;SDS011;66703;48.076;9.220;2023-08-01T03:32:37;5.18;;;3.88;;
77563;SDS011;66703;48.076;9.220;2023-08-01T03:35:04;5.78;;;4.05;;
77563;SDS011;66703;48.076;9.220;2023-08-01T03:37:36;7.70;;;4.45;;
77563;SDS011;66703;48.076;9.220;2023-08-01T03:40:02;4.88;;;3.97;;
77563;SDS011;66703;48.076;9.220;2023-08-01T03:42:41;5.18;;;3.63;;
77563;SDS011;66703;48.076;9.220;2023-08-01T03:45:10;4.70;;;4.20;;
77563;SDS011;66703;48.076;9.220;2023-08-01T03:47:35;5.85;;;4.78;;
77563;SDS011;66703;48.076;9.220;2023-08-01T03:50:01;4.95;;;4.22;;
77563;SDS011;66703;48.076;9.220;2023-08-01T03:52:35;6.35;;;5.07;;
77563;SDS011;66703;48.076;9.220;2023-08-01T03:55:01;5.68;;;4.30;;
77563;SDS011;66703;48.076;9.220;2023-08-01T03:57:35;5.07;;;4.57;;
77563;SDS011;66703;48.076;9.220;2023-08-01T04:00:03;5.15;;;4.05;;
77563;SDS011;66703;48.076;9.220;2023-08-01T04:02:33;6.50;;;4.82;;
77563;SDS011;66703;48.076;9.220;2023-08-01T04:05:01;6.10;;;4.05;;
77563;SDS011;66703;48.076;9.220;2023-08-01T04:07:27;5.15;;;3.83;;
77563;SDS011;66703;48.076;9.220;2023-08-01T04:09:53;5.43;;;4.72;;
77563;SDS011;66703;48.076;9.220;2023-08-01T04:12:21;5.97;;;4.68;;
77563;SDS011;66703;48.076;9.220;2023-08-01T04:14:52;6.22;;;4.15;;
77563;SDS011;66703;48.076;9.220;2023-08-01T04:17:24;6.18;;;4.07;;
77563;SDS011;66703;48.076;9.220;2023-08-01T04:19:51;5.38;;;3.60;;
77563;SDS011;66703;48.076;9.220;2023-08-01T04:22:20;4.35;;;3.95;;
77563;SDS011;66703;48.076;9.220;2023-08-01T04:24:46;8.73;;;4.00;;
77563;SDS011;66703;48.076;9.220;2023-08-01T04:27:14;7.32;;;3.92;;
77563;SDS011;66703;48.076;9.220;2023-08-01T04:29:39;5.20;;;4.70;;
77563;SDS011;66703;48.076;9.220;2023-08-01T04:32:05;4.80;;;3.72;;
77563;SDS011;66703;48.076;9.220;2023-08-01T04:34:31;4.55;;;3.30;;
77563;SDS011;66703;48.076;9.220;2023-08-01T04:36:57;6.75;;;3.38;;
77563;SDS011;66703;48.076;9.220;2023-08-01T04:39:23;5.13;;;4.15;;
77563;SDS011;66703;48.076;9.220;2023-08-01T04:41:49;7.95;;;4.20;;
77563;SDS011;66703;48.076;9.220;2023-08-01T04:44:15;4.72;;;3.50;;
77563;SDS011;66703;48.076;9.220;2023-08-01T04:46:44;5.57;;;4.05;;
77563;SDS011;66703;48.076;9.220;2023-08-01T04:49:10;6.00;;;3.65;;
77563;SDS011;66703;48.076;9.220;2023-08-01T04:51:41;7.38;;;4.07;;
77563;SDS011;66703;48.076;9.220;2023-08-01T04:54:11;5.18;;;3.97;;
77563;SDS011;66703;48.076;9.220;2023-08-01T04:56:44;6.28;;;3.70;;
77563;SDS011;66703;48.076;9.220;2023-08-01T04:59:18;8.23;;;4.05;;
77563;SDS011;66703;48.076;9.220;2023-08-01T05:01:44;8.63;;;4.95;;
77563;SDS011;66703;48.076;9.220;2023-08-01T05:04:17;6.50;;;4.35;;
77563;SDS011;66703;48.076;9.220;2023-08-01T05:06:44;5.72;;;4.70;;
77563;SDS011;66703;48.076;9.220;2023-08-01T05:09:10;5.40;;;4.00;;
77563;SDS011;66703;48.076;9.220;2023-08-01T05:11:44;6.63;;;4.20;;
77563;SDS011;66703;48.076;9.220;2023-08-01T05:14:20;10.07;;;4.45;;
77563;SDS011;66703;48.076;9.220;2023-08-01T05:16:49;6.65;;;4.72;;
77563;SDS011;66703;48.076;9.220;2023-08-01T05:19:23;4.60;;;3.85;;
77563;SDS011;66703;48.076;9.220;2023-08-01T05:21:49;5.38;;;3.95;;
77563;SDS011;66703;48.076;9.220;2023-08-01T05:24:20;7.10;;;4.65;;
77563;SDS011;66703;48.076;9.220;2023-08-01T05:26:51;6.20;;;4.38;;
77563;SDS011;66703;48.076;9.220;2023-08-01T05:29:28;7.60;;;4.07;;
77563;SDS011;66703;48.076;9.220;2023-08-01T05:31:58;6.30;;;3.72;;
77563;SDS011;66703;48.076;9.220;2023-08-01T05:34:37;6.05;;;4.43;;
77563;SDS011;66703;48.076;9.220;2023-08-01T05:37:09;7.68;;;4.07;;
77563;SDS011;66703;48.076;9.220;2023-08-01T05:39:35;8.88;;;4.28;;
77563;SDS011;66703;48.076;9.220;2023-08-01T05:42:01;6.05;;;5.13;;
77563;SDS011;66703;48.076;9.220;2023-08-01T05:44:26;6.82;;;5.07;;
77563;SDS011;66703;48.076;9.220;2023-08-01T05:46:53;8.23;;;5.32;;
77563;SDS011;66703;48.076;9.220;2023-08-01T05:49:23;7.63;;;5.43;;
77563;SDS011;66703;48.076;9.220;2023-08-01T05:51:55;7.70;;;5.05;;
77563;SDS011;66703;48.076;9.220;2023-08-01T05:54:24;6.68;;;4.93;;
77563;SDS011;66703;48.076;9.220;2023-08-01T05:56:59;6.75;;;4.85;;
77563;SDS011;66703;48.076;9.220;2023-08-01T05:59:27;7.00;;;5.13;;
77563;SDS011;66703;48.076;9.220;2023-08-01T06:01:55;8.77;;;4.47;;
77563;SDS011;66703;48.076;9.220;2023-08-01T06:04:21;8.82;;;5.68;;
77563;SDS011;66703;48.076;9.220;2023-08-01T06:06:50;6.32;;;4.80;;
77563;SDS011;66703;48.076;9.220;2023-08-01T06:09:16;10.35;;;5.28;;
77563;SDS011;66703;48.076;9.220;2023-08-01T06:11:42;6.95;;;6.30;;
77563;SDS011;66703;48.076;9.220;2023-08-01T06:14:10;6.65;;;5.05;;
77563;SDS011;66703;48.076;9.220;2023-08-01T06:16:36;5.93;;;4.82;;
77563;SDS011;66703;48.076;9.220;2023-08-01T06:19:04;7.13;;;4.15;;
77563;SDS011;66703;48.076;9.220;2023-08-01T06:21:30;5.75;;;4.53;;
77563;SDS011;66703;48.076;9.220;2023-08-01T06:23:58;7.18;;;5.10;;
77563;SDS011;66703;48.076;9.220;2023-08-01T06:26:24;6.53;;;4.57;;
77563;SDS011;66703;48.076;9.220;2023-08-01T06:28:50;7.82;;;5.00;;
77563;SDS011;66703;48.076;9.220;2023-08-01T06:31:18;6.82;;;4.20;;
77563;SDS011;66703;48.076;9.220;2023-08-01T06:33:46;4.70;;;3.97;;
77563;SDS011;66703;48.076;9.220;2023-08-01T06:36:11;6.10;;;4.40;;
77563;SDS011;66703;48.076;9.220;2023-08-01T06:38:38;7.45;;;4.63;;
77563;SDS011;66703;48.076;9.220;2023-08-01T06:41:04;5.95;;;3.95;;
77563;SDS011;66703;48.076;9.220;2023-08-01T06:43:30;6.22;;;4.28;;
77563;SDS011;66703;48.076;9.220;2023-08-01T06:45:55;5.43;;;4.47;;
77563;SDS011;66703;48.076;9.220;2023-08-01T06:48:28;4.60;;;3.85;;
77563;SDS011;66703;48.076;9.220;2023-08-01T06:50:54;5.47;;;3.85;;
77563;SDS011;66703;48.076;9.220;2023-08-01T06:53:20;7.72;;;4.30;;
77563;SDS011;66703;48.076;9.220;2023-08-01T06:55:48;7.63;;;5.35;;
77563;SDS011;66703;48.076;9.220;2023-08-01T06:58:19;5.63;;;4.47;;
77563;SDS011;66703;48.076;9.220;2023-08-01T07:00:50;5.68;;;4.18;;
77563;SDS011;66703;48.076;9.220;2023-08-01T07:03:16;8.77;;;4.18;;
77563;SDS011;66703;48.076;9.220;2023-08-01T07:05:42;5.45;;;3.85;;
77563;SDS011;66703;48.076;9.220;2023-08-01T07:08:08;5.45;;;4.60;;
77563;SDS011;66703;48.076;9.220;2023-08-01T07:10:37;5.15;;;4.07;;
77563;SDS011;66703;48.076;9.220;2023-08-01T07:13:05;5.35;;;4.32;;
77563;SDS011;66703;48.076;9.220;2023-08-01T07:15:31;6.35;;;3.88;;
77563;SDS011;66703;48.076;9.220;2023-08-01T07:17:57;6.95;;;4.78;;
77563;SDS011;66703;48.076;9.220;2023-08-01T07:20:26;5.15;;;4.43;;
77563;SDS011;66703;48.076;9.220;2023-08-01T07:22:54;6.40;;;5.20;;
77563;SDS011;66703;48.076;9.220;2023-08-01T07:25:19;6.88;;;4.80;;
77563;SDS011;66703;48.076;9.220;2023-08-01T07:27:45;7.85;;;5.15;;
77563;SDS011;66703;48.076;9.220;2023-08-01T07:30:14;6.55;;;4.75;;
77563;SDS011;66703;48.076;9.220;2023-08-01T07:32:42;7.35;;;4.45;;
77563;SDS011;66703;48.076;9.220;2023-08-01T07:35:13;5.47;;;4.30;;
77563;SDS011;66703;48.076;9.220;2023-08-01T07:37:41;5.65;;;4.47;;
77563;SDS011;66703;48.076;9.220;2023-08-01T07:40:07;6.55;;;4.90;;
77563;SDS011;66703;48.076;9.220;2023-08-01T07:45:07;8.32;;;5.18;;
77563;SDS011;66703;48.076;9.220;2023-08-01T07:47:38;7.00;;;5.25;;
77563;SDS011;66703;48.076;9.220;2023-08-01T07:50:11;6.57;;;4.80;;
77563;SDS011;66703;48.076;9.220;2023-08-01T07:52:37;7.63;;;6.32;;
77563;SDS011;66703;48.076;9.220;2023-08-01T07:55:09;7.75;;;6.18;;
77563;SDS011;66703;48.076;9.220;2023-08-01T07:57:39;7.68;;;4.63;;
77563;SDS011;66703;48.076;9.220;2023-08-01T08:00:05;9.10;;;5.22;;
77563;SDS011;66703;48.076;9.220;2023-08-01T08:02:37;6.63;;;4.50;;
77563;SDS011;66703;48.076;9.220;2023-08-01T08:05:02;10.32;;;5.00;;
77563;SDS011;66703;48.076;9.220;2023-08-01T08:07:32;5.30;;;4.50;;
77563;SDS011;66703;48.076;9.220;2023-08-01T08:10:03;5.53;;;4.60;;
77563;SDS011;66703;48.076;9.220;2023-08-01T08:12:32;8.43;;;5.63;;
77563;SDS011;66703;48.076;9.220;2023-08-01T08:14:58;5.43;;;4.22;;
77563;SDS011;66703;48.076;9.220;2023-08-01T08:17:26;6.50;;;4.90;;
77563;SDS011;66703;48.076;9.220;2023-08-01T08:19:52;6.22;;;5.15;;
77563;SDS011;66703;48.076;9.220;2023-08-01T08:22:18;5.20;;;4.45;;
77563;SDS011;66703;48.076;9.220;2023-08-01T08:24:49;7.63;;;4.43;;
77563;SDS011;66703;48.076;9.220;2023-08-01T08:27:18;6.80;;;4.72;;
77563;SDS011;66703;48.076;9.220;2023-08-01T08:29:49;6.07;;;4.43;;
77563;SDS011;66703;48.076;9.220;2023-08-01T08:32:15;6.68;;;4.57;;
77563;SDS011;66703;48.076;9.220;2023-08-01T08:34:44;5.93;;;4.38;;
77563;SDS011;66703;48.076;9.220;2023-08-01T08:37:12;6.40;;;4.28;;
77563;SDS011;66703;48.076;9.220;2023-08-01T08:39:37;7.32;;;4.70;;
77563;SDS011;66703;48.076;9.220;2023-08-01T08:42:09;7.22;;;4.70;;
77563;SDS011;66703;48.076;9.220;2023-08-01T08:44:40;7.30;;;5.47;;
77563;SDS011;66703;48.076;9.220;2023-08-01T08:47:08;7.47;;;4.68;;
77563;SDS011;66703;48.076;9.220;2023-08-01T08:49:42;6.72;;;4.80;;
77563;SDS011;66703;48.076;9.220;2023-08-01T08:52:11;8.75;;;5.32;;
77563;SDS011;66703;48.076;9.220;2023-08-01T08:54:37;8.07;;;5.85;;
77563;SDS011;66703;48.076;9.220;2023-08-01T08:57:15;7.10;;;4.88;;
77563;SDS011;66703;48.076;9.220;2023-08-01T08:59:44;6.40;;;5.68;;
77563;SDS011;66703;48.076;9.220;2023-08-01T09:02:11;9.35;;;4.90;;
77563;SDS011;66703;48.076;9.220;2023-08-01T09:04:39;8.32;;;5.32;;
77563;SDS011;66703;48.076;9.220;2023-08-01T09:07:14;6.47;;;4.82;;
77563;SDS011;66703;48.076;9.220;2023-08-01T09:09:45;5.97;;;4.72;;
77563;SDS011;66703;48.076;9.220;2023-08-01T09:12:11;6.38;;;4.50;;
77563;SDS011;66703;48.076;9.220;2023-08-01T09:14:46;7.28;;;4.88;;
77563;SDS011;66703;48.076;9.220;2023-08-01T09:17:14;5.68;;;5.07;;
77563;SDS011;66703;48.076;9.220;2023-08-01T09:19:45;7.20;;;4.47;;
77563;SDS011;66703;48.076;9.220;2023-08-01T09:22:17;6.65;;;5.53;;
77563;SDS011;66703;48.076;9.220;2023-08-01T09:24:52;6.90;;;4.05;;
77563;SDS011;66703;48.076;9.220;2023-08-01T09:27:21;7.57;;;4.90;;
77563;SDS011;66703;48.076;9.220;2023-08-01T09:29:48;5.35;;;4.22;;
77563;SDS011;66703;48.076;9.220;2023-08-01T09:32:15;8.98;;;5.88;;
77563;SDS011;66703;48.076;9.220;2023-08-01T09:34:41;7.25;;;5.10;;
77563;SDS011;66703;48.076;9.220;2023-08-01T09:37:18;7.53;;;5.15;;
77563;SDS011;66703;48.076;9.220;2023-08-01T09:39:44;5.70;;;4.35;;
77563;SDS011;66703;48.076;9.220;2023-08-01T09:42:18;8.07;;;5.28;;
77563;SDS011;66703;48.076;9.220;2023-08-01T09:44:44;7.50;;;4.88;;
77563;SDS011;66703;48.076;9.220;2023-08-01T09:47:12;5.40;;;4.63;;
77563;SDS011;66703;48.076;9.220;2023-08-01T09:49:46;5.50;;;4.93;;
77563;SDS011;66703;48.076;9.220;2023-08-01T09:52:14;7.57;;;4.47;;
77563;SDS011;66703;48.076;9.220;2023-08-01T09:54:40;5.45;;;3.80;;
77563;SDS011;66703;48.076;9.220;2023-08-01T09:57:08;5.47;;;4.68;;
77563;SDS011;66703;48.076;9.220;2023-08-01T09:59:37;5.28;;;4.45;;
77563;SDS011;66703;48.076;9.220;2023-08-01T10:02:05;5.45;;;4.35;;
77563;SDS011;66703;48.076;9.220;2023-08-01T10:04:35;7.30;;;4.30;;
77563;SDS011;66703;48.076;9.220;2023-08-01T10:07:07;3.95;;;3.13;;
77563;SDS011;66703;48.076;9.220;2023-08-01T10:09:34;7.63;;;3.58;;
77563;SDS011;66703;48.076;9.220;2023-08-01T10:12:04;4.45;;;3.28;;
77563;SDS011;66703;48.076;9.220;2023-08-01T10:14:33;3.65;;;3.08;;
77563;SDS011;66703;48.076;9.220;2023-08-01T10:17:01;5.40;;;3.78;;
77563;SDS011;66703;48.076;9.220;2023-08-01T10:19:27;4.28;;;3.35;;
77563;SDS011;66703;48.076;9.220;2023-08-01T10:21:58;5.18;;;3.42;;
77563;SDS011;66703;48.076;9.220;2023-08-01T10:24:29;5.20;;;3.45;;
77563;SDS011;66703;48.076;9.220;2023-08-01T10:26:55;4.88;;;3.05;;
77563;SDS011;66703;48.076;9.220;2023-08-01T10:29:37;7.55;;;3.97;;
77563;SDS011;66703;48.076;9.220;2023-08-01T10:32:03;4.53;;;3.40;;
77563;SDS011;66703;48.076;9.220;2023-08-01T10:34:32;5.50;;;3.45;;
77563;SDS011;66703;48.076;9.220;2023-08-01T10:36:59;4.18;;;3.45;;
77563;SDS011;66703;48.076;9.220;2023-08-01T10:39:26;4.22;;;3.80;;
77563;SDS011;66703;48.076;9.220;2023-08-01T10:42:04;7.28;;;3.85;;
77563;SDS011;66703;48.076;9.220;2023-08-01T10:44:33;5.50;;;3.90;;
77563;SDS011;66703;48.076;9.220;2023-08-01T10:47:12;4.50;;;4.05;;
77563;SDS011;66703;48.076;9.220;2023-08-01T10:49:53;5.45;;;4.00;;
77563;SDS011;66703;48.076;9.220;2023-08-01T10:52:26;4.32;;;3.92;;
77563;SDS011;66703;48.076;9.220;2023-08-01T10:54:58;4.25;;;3.60;;
77563;SDS011;66703;48.076;9.220;2023-08-01T10:57:26;5.05;;;4.22;;
77563;SDS011;66703;48.076;9.220;2023-08-01T10:59:53;5.75;;;3.85;;
77563;SDS011;66703;48.076;9.220;2023-08-01T11:02:22;5.18;;;4.05;;
77563;SDS011;66703;48.076;9.220;2023-08-01T11:04:58;4.47;;;3.55;;
77563;SDS011;66703;48.076;9.220;2023-08-01T11:07:25;3.75;;;3.38;;
77563;SDS011;66703;48.076;9.220;2023-08-01T11:10:07;5.05;;;3.38;;
77563;SDS011;66703;48.076;9.220;2023-08-01T11:12:40;5.80;;;3.75;;
77563;SDS011;66703;48.076;9.220;2023-08-01T11:15:13;4.60;;;3.72;;
77563;SDS011;66703;48.076;9.220;2023-08-01T11:17:50;4.18;;;3.58;;
77563;SDS011;66703;48.076;9.220;2023-08-01T11:20:23;5.47;;;4.15;;
77563;SDS011;66703;48.076;9.220;2023-08-01T11:25:17;3.80;;;2.60;;
77563;SDS011;66703;48.076;9.220;2023-08-01T11:27:43;3.05;;;2.70;;
77563;SDS011;66703;48.076;9.220;2023-08-01T11:30:12;4.70;;;3.90;;
77563;SDS011;66703;48.076;9.220;2023-08-01T11:32:43;4.85;;;3.45;;
77563;SDS011;66703;48.076;9.220;2023-08-01T11:35:16;3.00;;;2.50;;
77563;SDS011;66703;48.076;9.220;2023-08-01T11:37:45;4.60;;;2.42;;
77563;SDS011;66703;48.076;9.220;2023-08-01T11:40:17;3.67;;;2.75;;
77563;SDS011;66703;48.076;9.220;2023-08-01T11:42:49;4.78;;;2.42;;
77563;SDS011;66703;48.076;9.220;2023-08-01T11:45:18;3.17;;;2.50;;
77563;SDS011;66703;48.076;9.220;2023-08-01T11:47:47;3.10;;;2.08;;
77563;SDS011;66703;48.076;9.220;2023-08-01T11:50:14;3.17;;;2.25;;
77563;SDS011;66703;48.076;9.220;2023-08-01T11:52:40;3.63;;;2.20;;
77563;SDS011;66703;48.076;9.220;2023-08-01T11:55:17;3.70;;;2.95;;
77563;SDS011;66703;48.076;9.220;2023-08-01T11:57:58;2.80;;;2.30;;
77563;SDS011;66703;48.076;9.220;2023-08-01T12:00:30;2.97;;;2.42;;
77563;SDS011;66703;48.076;9.220;2023-08-01T12:03:08;3.47;;;2.33;;
77563;SDS011;66703;48.076;9.220;2023-08-01T12:05:52;3.90;;;2.60;;
77563;SDS011;66703;48.076;9.220;2023-08-01T12:08:33;7.25;;;2.95;;
77563;SDS011;66703;48.076;9.220;2023-08-01T12:10:59;6.32;;;2.97;;
77563;SDS011;66703;48.076;9.220;2023-08-01T12:13:25;3.42;;;2.83;;
77563;SDS011;66703;48.076;9.220;2023-08-01T12:15:52;3.75;;;2.38;;
77563;SDS011;66703;48.076;9.220;2023-08-01T12:18:28;3.55;;;2.47;;
77563;SDS011;66703;48.076;9.220;2023-08-01T12:20:54;3.13;;;2.83;;
77563;SDS011;66703;48.076;9.220;2023-08-01T12:23:21;3.28;;;2.80;;
77563;SDS011;66703;48.076;9.220;2023-08-01T12:25:53;3.67;;;2.90;;
77563;SDS011;66703;48.076;9.220;2023-08-01T12:28:20;3.38;;;2.80;;
77563;SDS011;66703;48.076;9.220;2023-08-01T12:30:49;4.38;;;3.08;;
77563;SDS011;66703;48.076;9.220;2023-08-01T12:33:18;5.97;;;2.53;;
77563;SDS011;66703;48.076;9.220;2023-08-01T12:35:44;2.92;;;1.73;;
77563;SDS011;66703;48.076;9.220;2023-08-01T12:38:13;3.90;;;1.60;;
77563;SDS011;66703;48.076;9.220;2023-08-01T12:40:38;2.10;;;1.50;;
77563;SDS011;66703;48.076;9.220;2023-08-01T12:43:07;1.63;;;1.25;;
77563;SDS011;66703;48.076;9.220;2023-08-01T12:48:08;2.67;;;1.20;;
77563;SDS011;66703;48.076;9.220;2023-08-01T12:51:49;3.83;;;1.60;;
77563;SDS011;66703;48.076;9.220;2023-08-01T12:54:49;1.63;;;1.35;;
77563;SDS011;66703;48.076;9.220;2023-08-01T12:57:25;2.30;;;1.95;;
77563;SDS011;66703;48.076;9.220;2023-08-01T12:59:51;1.50;;;1.30;;
77563;SDS011;66703;48.076;9.220;2023-08-01T13:02:17;1.60;;;1.35;;
77563;SDS011;66703;48.076;9.220;2023-08-01T13:07:35;1.73;;;1.50;;
77563;SDS011;66703;48.076;9.220;2023-08-01T13:10:30;1.88;;;1.77;;
77563;SDS011;66703;48.076;9.220;2023-08-01T13:13:33;1.85;;;1.48;;
77563;SDS011;66703;48.076;9.220;2023-08-01T13:16:24;3.22;;;1.45;;
77563;SDS011;66703;48.076;9.220;2023-08-01T13:26:05;3.05;;;2.03;;
77563;SDS011;66703;48.076;9.220;2023-08-01T13:28:31;2.75;;;1.80;;
77563;SDS011;66703;48.076;9.220;2023-08-01T13:31:06;3.90;;;2.92;;
77563;SDS011;66703;48.076;9.220;2023-08-01T13:37:28;2.25;;;1.90;;
77563;SDS011;66703;48.076;9.220;2023-08-01T13:46:07;1.80;;;1.70;;
77563;SDS011;66703;48.076;9.220;2023-08-01T13:48:48;2.53;;;1.55;;
77563;SDS011;66703;48.076;9.220;2023-08-01T13:51:14;1.88;;;1.67;;
77563;SDS011;66703;48.076;9.220;2023-08-01T13:53:39;2.40;;;1.77;;
77563;SDS011;66703;48.076;9.220;2023-08-01T13:56:09;3.17;;;1.83;;
77563;SDS011;66703;48.076;9.220;2023-08-01T13:58:35;2.30;;;1.63;;
77563;SDS011;66703;48.076;9.220;2023-08-01T14:01:01;3.30;;;1.80;;
77563;SDS011;66703;48.076;9.220;2023-08-01T14:03:34;3.17;;;1.70;;
77563;SDS011;66703;48.076;9.220;2023-08-01T14:06:09;3.03;;;1.92;;
77563;SDS011;66703;48.076;9.220;2023-08-01T14:08:36;2.33;;;1.60;;
77563;SDS011;66703;48.076;9.220;2023-08-01T14:11:07;2.30;;;1.75;;
77563;SDS011;66703;48.076;9.220;2023-08-01T14:13:34;2.15;;;1.60;;
77563;SDS011;66703;48.076;9.220;2023-08-01T14:16:03;1.98;;;1.70;;
77563;SDS011;66703;48.076;9.220;2023-08-01T14:18:38;1.85;;;1.40;;
77563;SDS011;66703;48.076;9.220;2023-08-01T14:21:09;3.25;;;1.50;;
77563;SDS011;66703;48.076;9.220;2023-08-01T14:23:35;1.83;;;1.73;;
77563;SDS011;66703;48.076;9.220;2023-08-01T14:26:03;1.92;;;1.60;;
77563;SDS011;66703;48.076;9.220;2023-08-01T14:28:29;2.40;;;1.88;;
77563;SDS011;66703;48.076;9.220;2023-08-01T14:31:00;3.35;;;1.50;;
77563;SDS011;66703;48.076;9.220;2023-08-01T14:33:27;1.60;;;1.50;;
77563;SDS011;66703;48.076;9.220;2023-08-01T14:35:55;2.00;;;1.48;;
77563;SDS011;66703;48.076;9.220;2023-08-01T14:38:24;3.15;;;1.52;;
77563;SDS011;66703;48.076;9.220;2023-08-01T14:40:51;1.55;;;1.45;;
77563;SDS011;66703;48.076;9.220;2023-08-01T14:43:22;2.03;;;1.20;;
77563;SDS011;66703;48.076;9.220;2023-08-01T14:45:50;1.83;;;1.73;;
77563;SDS011;66703;48.076;9.220;2023-08-01T14:48:18;1.80;;;1.58;;
77563;SDS011;66703;48.076;9.220;2023-08-01T14:50:46;1.70;;;1.45;;
77563;SDS011;66703;48.076;9.220;2023-08-01T14:53:18;1.50;;;1.27;;
77563;SDS011;66703;48.076;9.220;2023-08-01T14:55:46;1.70;;;1.30;;
77563;SDS011;66703;48.076;9.220;2023-08-01T14:58:21;1.17;;;1.08;;
77563;SDS011;66703;48.076;9.220;2023-08-01T15:00:53;2.60;;;1.30;;
77563;SDS011;66703;48.076;9.220;2023-08-01T15:03:21;2.60;;;1.48;;
77563;SDS011;66703;48.076;9.220;2023-08-01T15:05:47;2.15;;;1.38;;
77563;SDS011;66703;48.076;9.220;2023-08-01T15:08:16;1.52;;;1.20;;
77563;SDS011;66703;48.076;9.220;2023-08-01T15:10:42;1.38;;;1.23;;
77563;SDS011;66703;48.076;9.220;2023-08-01T15:13:10;1.60;;;1.35;;
77563;SDS011;66703;48.076;9.220;2023-08-01T15:15:41;1.48;;;1.25;;
77563;SDS011;66703;48.076;9.220;2023-08-01T15:18:10;1.90;;;1.10;;
77563;SDS011;66703;48.076;9.220;2023-08-01T15:20:35;2.13;;;1.52;;
77563;SDS011;66703;48.076;9.220;2023-08-01T15:23:06;1.30;;;1.20;;
77563;SDS011;66703;48.076;9.220;2023-08-01T15:25:33;2.60;;;1.50;;
77563;SDS011;66703;48.076;9.220;2023-08-01T15:28:00;2.22;;;1.50;;
77563;SDS011;66703;48.076;9.220;2023-08-01T15:30:25;2.45;;;1.30;;
77563;SDS011;66703;48.076;9.220;2023-08-01T15:33:00;2.30;;;1.70;;
77563;SDS011;66703;48.076;9.220;2023-08-01T15:35:29;1.40;;;1.30;;
77563;SDS011;66703;48.076;9.220;2023-08-01T15:37:55;2.95;;;1.52;;
77563;SDS011;66703;48.076;9.220;2023-08-01T15:42:50;1.42;;;1.30;;
77563;SDS011;66703;48.076;9.220;2023-08-01T15:45:19;1.80;;;1.50;;
77563;SDS011;66703;48.076;9.220;2023-08-01T15:47:45;3.97;;;1.40;;